createdAt,value
2018-04-28T00:00:28.928Z,57.7
2018-04-28T00:01:38.691Z,57.22
2018-04-28T00:02:47.646Z,57.7
2018-04-28T00:03:57.409Z,57.9
2018-04-28T00:05:06.640Z,57.6
2018-04-28T00:06:16.134Z,57.8
2018-04-28T00:07:25.364Z,58.09
2018-04-28T00:08:34.857Z,58.28
2018-04-28T00:09:44.635Z,58.25
2018-04-28T00:10:54.659Z,58.67
2018-04-28T00:12:04.148Z,58.37
2018-04-28T00:13:13.645Z,58.57
2018-04-28T00:14:22.873Z,58.57
2018-04-28T00:15:32.114Z,59.05
2018-04-28T00:16:42.150Z,59.15
2018-04-28T00:17:51.641Z,59.15
2018-04-28T00:19:00.862Z,58.92
2018-04-28T00:20:10.982Z,58.86
2018-04-28T00:21:20.747Z,58.86
2018-04-28T00:22:30.243Z,58.76
2018-04-28T00:23:39.469Z,59.31
2018-04-28T00:24:48.699Z,59.22
2018-04-28T00:25:57.927Z,59.22
2018-04-28T00:27:06.878Z,59.15
2018-04-28T00:28:16.097Z,59.15
2018-04-28T00:29:26.126Z,59.15
2018-04-28T00:30:35.895Z,58.76
2018-04-28T00:31:45.118Z,59.05
2018-04-28T00:32:54.347Z,59.24
2018-04-28T00:34:03.841Z,58.76
2018-04-28T00:35:13.348Z,59.34
2018-04-28T00:36:23.190Z,59.22
2018-04-28T00:37:32.682Z,59.72
2018-04-28T00:38:42.176Z,59.72
2018-04-28T00:39:51.666Z,59.44
2018-04-28T00:41:00.624Z,59.63
2018-04-28T00:42:10.403Z,59.53
2018-04-28T00:43:20.167Z,59.31
2018-04-28T00:44:29.933Z,59.53
2018-04-28T00:45:39.701Z,59.34
2018-04-28T00:46:49.197Z,59.53
2018-04-28T00:47:58.972Z,59.72
2018-04-28T00:49:08.736Z,60.3
2018-04-28T00:50:18.765Z,60.01
2018-04-28T00:51:28.268Z,60.01
2018-04-28T00:52:38.027Z,59.82
2018-04-28T00:53:46.996Z,60.27
2018-04-28T00:54:56.773Z,60.01
2018-04-28T00:56:06.030Z,59.92
2018-04-28T00:57:15.532Z,60.01
2018-04-28T00:58:25.294Z,59.82
2018-04-28T00:59:35.057Z,59.99
2018-04-28T01:00:44.817Z,59.72
2018-04-28T01:01:54.041Z,59.92
2018-04-28T01:03:03.278Z,59.82
2018-04-28T01:04:12.506Z,60.08
2018-04-28T01:05:21.471Z,59.99
2018-04-28T01:06:31.237Z,60.01
2018-04-28T01:07:40.464Z,59.72
2018-04-28T01:08:49.696Z,59.99
2018-04-28T01:09:58.923Z,59.72
2018-04-28T01:11:08.149Z,59.99
2018-04-28T01:12:18.176Z,59.82
2018-04-28T01:13:27.671Z,59.72
2018-04-28T01:14:36.631Z,59.82
2018-04-28T01:15:46.391Z,59.82
2018-04-28T01:16:56.155Z,59.72
2018-04-28T01:18:06.186Z,60.21
2018-04-28T01:19:15.417Z,59.92
2018-04-28T01:20:24.911Z,59.89
2018-04-28T01:21:34.681Z,59.92
2018-04-28T01:22:43.905Z,60.01
2018-04-28T01:23:53.130Z,59.92
2018-04-28T01:25:02.894Z,60.39
2018-04-28T01:26:12.388Z,59.92
2018-04-28T01:27:21.896Z,59.99
2018-04-28T01:28:31.397Z,59.89
2018-04-28T01:29:40.356Z,60.11
2018-04-28T01:30:50.120Z,60.11
2018-04-28T01:31:59.074Z,59.89
2018-04-28T01:33:08.311Z,59.89
2018-04-28T01:34:17.266Z,60.01
2018-04-28T01:35:27.082Z,59.79
2018-04-28T01:36:36.525Z,59.92
2018-04-28T01:37:46.019Z,60.66
2018-04-28T01:38:55.253Z,59.99
2018-04-28T01:40:04.753Z,60.27
2018-04-28T01:41:13.977Z,60.27
2018-04-28T01:42:23.196Z,60.39
2018-04-28T01:43:32.158Z,60.11
2018-04-28T01:44:41.655Z,60.39
2018-04-28T01:45:50.879Z,60.08
2018-04-28T01:47:00.371Z,60.17
2018-04-28T01:48:09.882Z,60.46
2018-04-28T01:49:19.909Z,60.46
2018-04-28T01:50:28.870Z,60.37
2018-04-28T01:51:38.364Z,60.08
2018-04-28T01:52:47.586Z,60.17
2018-04-28T01:53:56.815Z,60.08
2018-04-28T01:55:05.780Z,60.59
2018-04-28T01:56:15.274Z,60.08
2018-04-28T01:57:23.962Z,60.46
2018-04-28T01:58:33.462Z,60.46
2018-04-28T01:59:43.231Z,60.46
2018-04-28T02:00:52.724Z,60.46
2018-04-28T02:02:02.219Z,60.46
2018-04-28T02:03:11.456Z,60.17
2018-04-28T02:04:20.947Z,60.56
2018-04-28T02:05:30.449Z,60.56
2018-04-28T02:06:40.479Z,60.46
2018-04-28T02:07:49.709Z,60.56
2018-04-28T02:08:59.203Z,60.37
2018-04-28T02:10:08.972Z,60.56
2018-04-28T02:11:18.196Z,60.37
2018-04-28T02:12:27.426Z,60.56
2018-04-28T02:13:37.183Z,60.46
2018-04-28T02:14:46.680Z,60.56
2018-04-28T02:15:56.169Z,60.17
2018-04-28T02:17:05.934Z,60.17
2018-04-28T02:18:15.722Z,60.66
2018-04-28T02:19:24.946Z,60.66
2018-04-28T02:20:34.177Z,60.37
2018-04-28T02:21:43.398Z,60.46
2018-04-28T02:22:52.619Z,60.46
2018-04-28T02:24:02.382Z,60.56
2018-04-28T02:25:11.608Z,60.56
2018-04-28T02:26:21.106Z,60.37
2018-04-28T02:27:30.592Z,60.46
2018-04-28T02:28:39.550Z,60.66
2018-04-28T02:29:48.504Z,60.66
2018-04-28T02:30:58.287Z,60.66
2018-04-28T02:32:08.064Z,60.66
2018-04-28T02:33:17.834Z,60.66
2018-04-28T02:34:27.871Z,60.46
2018-04-28T02:35:37.381Z,60.56
2018-04-28T02:36:47.166Z,60.46
2018-04-28T02:37:56.944Z,60.37
2018-04-28T02:39:06.986Z,60.37
2018-04-28T02:40:16.481Z,60.27
2018-04-28T02:41:25.988Z,60.37
2018-04-28T02:42:35.763Z,60.46
2018-04-28T02:43:45.613Z,60.46
2018-04-28T02:44:55.375Z,60.56
2018-04-28T02:46:04.886Z,60.46
2018-04-28T02:47:14.382Z,60.27
2018-04-28T02:48:24.151Z,60.17
2018-04-28T02:49:33.915Z,60.56
2018-04-28T02:50:43.684Z,60.56
2018-04-28T02:51:53.725Z,60.37
2018-04-28T02:53:03.228Z,60.56
2018-04-28T02:54:12.726Z,60.66
2018-04-28T02:55:22.498Z,60.66
2018-04-28T02:56:32.268Z,60.37
2018-04-28T02:57:41.792Z,60.46
2018-04-28T02:58:51.293Z,60.46
2018-04-28T03:00:01.341Z,60.37
2018-04-28T03:01:10.844Z,60.27
2018-04-28T03:02:20.338Z,60.37
2018-04-28T03:03:30.117Z,60.27
2018-04-28T03:04:39.880Z,60.08
2018-04-28T03:05:49.400Z,60.37
2018-04-28T03:06:59.169Z,60.56
2018-04-28T03:08:08.402Z,60.46
2018-04-28T03:09:17.891Z,60.46
2018-04-28T03:10:27.397Z,60.17
2018-04-28T03:11:37.171Z,60.27
2018-04-28T03:12:46.936Z,60.27
2018-04-28T03:13:56.178Z,60.27
2018-04-28T03:15:05.684Z,60.46
2018-04-28T03:16:15.174Z,60.37
2018-04-28T03:17:25.218Z,60.37
2018-04-28T03:18:34.445Z,60.27
2018-04-28T03:19:43.937Z,60.27
2018-04-28T03:20:53.713Z,60.27
2018-04-28T03:22:03.208Z,60.46
2018-04-28T03:23:12.165Z,60.56
2018-04-28T03:24:21.512Z,60.17
2018-04-28T03:25:31.817Z,60.27
2018-04-28T03:26:41.048Z,60.17
2018-04-28T03:27:51.078Z,60.27
2018-04-28T03:28:59.771Z,60.37
2018-04-28T03:30:08.730Z,60.27
2018-04-28T03:31:18.773Z,60.56
2018-04-28T03:32:28.542Z,60.27
2018-04-28T03:33:38.036Z,60.56
2018-04-28T03:34:47.274Z,60.56
2018-04-28T03:35:56.770Z,60.37
2018-04-28T03:37:06.017Z,60.85
2018-04-28T03:38:15.240Z,60.37
2018-04-28T03:39:24.206Z,60.46
2018-04-28T03:40:33.701Z,60.37
2018-04-28T03:41:43.467Z,60.27
2018-04-28T03:42:52.696Z,60.37
2018-04-28T03:44:01.923Z,60.46
2018-04-28T03:45:10.881Z,60.46
2018-04-28T03:46:20.379Z,60.37
2018-04-28T03:47:29.882Z,60.27
2018-04-28T03:48:39.654Z,60.27
2018-04-28T03:49:48.881Z,60.56
2018-04-28T03:50:58.375Z,60.46
2018-04-28T03:52:07.331Z,60.37
2018-04-28T03:53:16.556Z,60.27
2018-04-28T03:54:25.249Z,60.37
2018-04-28T03:55:35.057Z,60.27
2018-04-28T03:56:44.826Z,60.46
2018-04-28T03:57:54.325Z,60.37
2018-04-28T03:59:03.816Z,60.46
2018-04-28T04:00:13.581Z,60.27
2018-04-28T04:01:22.808Z,60.56
2018-04-28T04:02:32.295Z,60.85
2018-04-28T04:03:41.795Z,60.27
2018-04-28T04:04:51.554Z,60.56
2018-04-28T04:06:01.040Z,60.27
2018-04-28T04:07:09.993Z,60.46
2018-04-28T04:08:19.483Z,60.27
2018-04-28T04:09:28.974Z,60.56
2018-04-28T04:10:37.931Z,60.37
2018-04-28T04:11:47.420Z,60.37
2018-04-28T04:12:56.380Z,60.56
2018-04-28T04:14:05.872Z,60.56
2018-04-28T04:15:15.091Z,60.66
2018-04-28T04:16:24.311Z,60.46
2018-04-28T04:17:33.814Z,60.37
2018-04-28T04:18:43.041Z,60.56
2018-04-28T04:19:52.806Z,60.46
2018-04-28T04:21:02.295Z,60.27
2018-04-28T04:22:11.792Z,60.46
2018-04-28T04:23:21.829Z,60.17
2018-04-28T04:24:31.329Z,60.37
2018-04-28T04:25:40.825Z,60.27
2018-04-28T04:26:50.053Z,59.99
2018-04-28T04:27:59.280Z,60.37
2018-04-28T04:29:08.624Z,60.37
2018-04-28T04:30:17.850Z,60.27
2018-04-28T04:31:27.341Z,60.46
2018-04-28T04:32:36.838Z,60.27
2018-04-28T04:33:46.332Z,60.56
2018-04-28T04:34:56.100Z,60.56
2018-04-28T04:36:05.055Z,60.46
2018-04-28T04:37:14.282Z,60.46
2018-04-28T04:38:23.245Z,60.56
2018-04-28T04:39:33.014Z,60.37
2018-04-28T04:40:42.241Z,60.46
2018-04-28T04:41:52.003Z,60.56
2018-04-28T04:43:01.495Z,60.37
2018-04-28T04:44:11.258Z,60.46
2018-04-28T04:45:20.219Z,60.46
2018-04-28T04:46:29.189Z,60.56
2018-04-28T04:47:38.417Z,60.56
2018-04-28T04:48:47.375Z,60.37
2018-04-28T04:49:56.598Z,60.46
2018-04-28T04:51:06.081Z,60.46
2018-04-28T04:52:15.630Z,60.56
2018-04-28T04:53:25.122Z,60.37
2018-04-28T04:54:34.625Z,60.46
2018-04-28T04:55:44.128Z,60.27
2018-04-28T04:56:53.351Z,60.46
2018-04-28T04:58:02.579Z,60.46
2018-04-28T04:59:12.112Z,60.37
2018-04-28T05:00:21.075Z,60.17
2018-04-28T05:01:30.834Z,60.56
2018-04-28T05:02:40.060Z,60.66
2018-04-28T05:03:50.099Z,60.37
2018-04-28T05:05:00.130Z,60.46
2018-04-28T05:06:09.894Z,60.56
2018-04-28T05:07:19.656Z,60.46
2018-04-28T05:08:28.666Z,60.08
2018-04-28T05:09:38.301Z,60.46
2018-04-28T05:10:48.055Z,60.08
2018-04-28T05:11:57.543Z,60.08
2018-04-28T05:13:06.779Z,60.46
2018-04-28T05:14:16.272Z,60.17
2018-04-28T05:15:25.496Z,60.37
2018-04-28T05:16:34.452Z,60.37
2018-04-28T05:17:43.678Z,60.37
2018-04-28T05:18:53.242Z,60.46
2018-04-28T05:20:03.006Z,60.27
2018-04-28T05:21:12.870Z,60.56
2018-04-28T05:22:22.360Z,60.08
2018-04-28T05:23:32.128Z,60.17
2018-04-28T05:24:41.894Z,60.27
2018-04-28T05:25:51.129Z,60.08
2018-04-28T05:27:00.929Z,60.46
2018-04-28T05:28:10.154Z,60.46
2018-04-28T05:29:19.917Z,60.27
2018-04-28T05:30:29.415Z,60.27
2018-04-28T05:31:39.449Z,60.27
2018-04-28T05:32:48.419Z,60.37
2018-04-28T05:33:57.915Z,60.37
2018-04-28T05:35:06.877Z,60.46
2018-04-28T05:36:16.907Z,60.37
2018-04-28T05:37:26.669Z,60.46
2018-04-28T05:38:36.161Z,60.37
2018-04-28T05:39:45.384Z,60.37
2018-04-28T05:40:54.343Z,60.37
2018-04-28T05:42:03.835Z,60.37
2018-04-28T05:43:13.058Z,60.37
2018-04-28T05:44:22.015Z,60.46
2018-04-28T05:45:31.239Z,60.37
2018-04-28T05:46:41.265Z,60.37
2018-04-28T05:47:50.760Z,60.37
2018-04-28T05:49:00.257Z,60.37
2018-04-28T05:50:09.479Z,60.46
2018-04-28T05:51:18.975Z,60.08
2018-04-28T05:52:28.202Z,60.34
2018-04-28T05:53:37.974Z,60.46
2018-04-28T05:54:47.729Z,59.99
2018-04-28T05:55:56.953Z,59.76
2018-04-28T05:57:05.911Z,59.99
2018-04-28T05:58:15.132Z,59.79
2018-04-28T05:59:24.670Z,60.08
2018-04-28T06:00:33.893Z,59.89
2018-04-28T06:01:42.586Z,59.99
2018-04-28T06:02:52.349Z,59.89
2018-04-28T06:04:01.579Z,60.08
2018-04-28T06:05:10.804Z,60.05
2018-04-28T06:06:20.292Z,60.08
2018-04-28T06:07:29.792Z,60.08
2018-04-28T06:08:39.017Z,59.99
2018-04-28T06:09:48.249Z,60.46
2018-04-28T06:10:57.493Z,59.89
2018-04-28T06:12:06.990Z,60.08
2018-04-28T06:13:16.491Z,60.14
2018-04-28T06:14:25.716Z,59.79
2018-04-28T06:15:34.409Z,59.69
2018-04-28T06:16:43.903Z,60.08
2018-04-28T06:17:53.656Z,59.79
2018-04-28T06:19:03.419Z,59.41
2018-04-28T06:20:12.634Z,59.69
2018-04-28T06:21:54.751Z,59.41
2018-04-28T06:23:04.525Z,59.6
2018-04-28T06:24:14.297Z,59.6
2018-04-28T06:25:24.053Z,59.22
2018-04-28T06:26:33.550Z,58.89
2018-04-28T06:27:42.508Z,58.92
2018-04-28T06:28:52.004Z,59.12
2018-04-28T06:30:01.772Z,59.12
2018-04-28T06:31:11.273Z,59.12
2018-04-28T06:32:20.778Z,59.31
2018-04-28T06:33:30.270Z,59.12
2018-04-28T06:34:39.503Z,58.64
2018-04-28T06:35:49.390Z,59.02
2018-04-28T06:36:59.295Z,59.02
2018-04-28T06:38:08.259Z,58.83
2018-04-28T06:39:17.217Z,58.83
2018-04-28T06:40:26.176Z,58.92
2018-04-28T06:41:35.405Z,58.92
2018-04-28T06:42:44.634Z,59.12
2018-04-28T06:43:53.882Z,59.12
2018-04-28T06:45:03.375Z,59.22
2018-04-28T06:46:12.601Z,59.12
2018-04-28T06:47:22.370Z,58.54
2018-04-28T06:48:31.862Z,59.12
2018-04-28T06:49:41.353Z,58.73
2018-04-28T06:50:50.856Z,58.54
2018-04-28T06:52:00.354Z,58.25
2018-04-28T06:53:09.578Z,58.35
2018-04-28T06:54:19.361Z,58.15
2018-04-28T06:55:28.856Z,57.68
2018-04-28T06:56:38.357Z,56.81
2018-04-28T06:57:47.038Z,56.71
2018-04-28T06:58:56.532Z,55.94
2018-04-28T07:00:05.230Z,55.56
2018-04-28T07:01:14.448Z,55.76
2018-04-28T07:02:23.425Z,55.76
2018-04-28T07:03:32.918Z,55.56
2018-04-28T07:04:42.790Z,55.46
2018-04-28T07:05:52.281Z,55.66
2018-04-28T07:07:01.772Z,54.99
2018-04-28T07:08:11.264Z,54.89
2018-04-28T07:09:19.953Z,55.85
2018-04-28T07:10:28.909Z,55.46
2018-04-28T07:11:38.133Z,55.56
2018-04-28T07:12:47.629Z,55.76
2018-04-28T07:13:57.124Z,56.23
2018-04-28T07:15:06.624Z,55.76
2018-04-28T07:16:16.419Z,55.85
2018-04-28T07:17:25.377Z,55.94
2018-04-28T07:18:34.609Z,55.94
2018-04-28T07:19:43.567Z,55.85
2018-04-28T07:20:52.812Z,56.04
2018-04-28T07:22:02.391Z,55.94
2018-04-28T07:23:11.884Z,55.94
2018-04-28T07:24:21.371Z,55.94
2018-04-28T07:25:31.477Z,55.85
2018-04-28T07:26:40.456Z,55.76
2018-04-28T07:27:49.956Z,55.76
2018-04-28T07:28:58.954Z,55.94
2018-04-28T07:30:08.726Z,55.94
2018-04-28T07:31:18.269Z,55.94
2018-04-28T07:32:27.495Z,55.85
2018-04-28T07:33:36.993Z,56.04
2018-04-28T07:34:46.232Z,56.04
2018-04-28T07:35:56.049Z,56.23
2018-04-28T07:37:06.146Z,56.04
2018-04-28T07:38:15.188Z,56.04
2018-04-28T07:39:24.415Z,56.33
2018-04-28T07:40:33.107Z,57.1
2018-04-28T07:41:42.867Z,57
2018-04-28T07:42:52.089Z,57.1
2018-04-28T07:44:01.312Z,56.52
2018-04-28T07:45:10.548Z,56.81
2018-04-28T07:46:20.069Z,56.81
2018-04-28T07:47:29.562Z,56.62
2018-04-28T07:48:39.551Z,56.62
2018-04-28T07:49:49.311Z,56.71
2018-04-28T07:50:59.062Z,56.52
2018-04-28T07:52:08.022Z,56.71
2018-04-28T07:53:17.785Z,56.43
2018-04-28T07:54:26.742Z,56.91
2018-04-28T07:55:36.235Z,56.71
2018-04-28T07:56:45.192Z,56.52
2018-04-28T07:57:54.415Z,56.04
2018-04-28T07:59:03.639Z,56.14
2018-04-28T08:00:13.190Z,55.76
2018-04-28T08:01:23.100Z,55.56
2018-04-28T08:02:32.321Z,55.56
2018-04-28T08:03:41.547Z,55.76
2018-04-28T08:04:51.043Z,55.56
2018-04-28T08:06:00.003Z,55.63
2018-04-28T08:07:09.231Z,55.85
2018-04-28T08:08:18.721Z,55.56
2018-04-28T08:09:28.212Z,55.73
2018-04-28T08:10:37.174Z,55.56
2018-04-28T08:11:46.134Z,55.73
2018-04-28T08:12:56.160Z,55.37
2018-04-28T08:14:05.381Z,56.04
2018-04-28T08:15:14.943Z,55.85
2018-04-28T08:16:25.032Z,55.85
2018-04-28T08:17:34.259Z,56.23
2018-04-28T08:18:44.025Z,55.24
2018-04-28T08:19:54.210Z,54.38
2018-04-28T08:21:03.728Z,54.57
2018-04-28T08:22:12.952Z,54
2018-04-28T08:23:22.175Z,54.09
2018-04-28T08:24:31.940Z,54.09
2018-04-28T08:25:41.179Z,53.8
2018-04-28T08:26:50.949Z,53.52
2018-04-28T08:28:00.175Z,54
2018-04-28T08:29:09.686Z,53.9
2018-04-28T08:30:19.467Z,54.67
2018-04-28T08:31:29.221Z,54.28
2018-04-28T08:32:38.714Z,54.38
2018-04-28T08:33:48.741Z,54.28
2018-04-28T08:34:58.507Z,54.86
2018-04-28T08:36:08.004Z,54.79
2018-04-28T08:37:17.681Z,55.44
2018-04-28T08:38:27.426Z,55.27
2018-04-28T08:39:37.187Z,55.08
2018-04-28T08:40:46.685Z,55.66
2018-04-28T08:41:56.189Z,55.66
2018-04-28T08:43:05.415Z,55.85
2018-04-28T08:44:14.908Z,56.04
2018-04-28T08:45:23.911Z,55.85
2018-04-28T08:46:33.737Z,55.94
2018-04-28T08:47:42.968Z,56.33
2018-04-28T08:48:52.470Z,56.04
2018-04-28T08:50:01.427Z,56.43
2018-04-28T08:51:11.073Z,56.33
2018-04-28T08:52:20.815Z,56.52
2018-04-28T08:53:29.769Z,56.71
2018-04-28T08:54:38.992Z,56.52
2018-04-28T08:55:48.490Z,56.81
2018-04-28T08:56:58.254Z,56.62
2018-04-28T08:58:07.214Z,56.52
2018-04-28T08:59:17.250Z,56.71
2018-04-28T09:00:26.477Z,56.81
2018-04-28T09:01:35.432Z,56.71
2018-04-28T09:02:44.923Z,56.71
2018-04-28T09:03:53.879Z,56.71
2018-04-28T09:05:03.650Z,56.71
2018-04-28T09:06:12.608Z,56.71
2018-04-28T09:07:22.371Z,56.71
2018-04-28T09:08:31.599Z,56.65
2018-04-28T09:09:40.559Z,56.81
2018-04-28T09:10:50.048Z,56.36
2018-04-28T09:11:59.599Z,56.36
2018-04-28T09:13:09.765Z,56.71
2018-04-28T09:14:19.229Z,56.43
2018-04-28T09:15:29.006Z,56.62
2018-04-28T09:16:38.771Z,56.93
2018-04-28T09:17:47.995Z,56.45
2018-04-28T09:18:57.751Z,56.74
2018-04-28T09:20:06.986Z,56.52
2018-04-28T09:21:16.215Z,57.03
2018-04-28T09:22:25.982Z,57.03
2018-04-28T09:23:36.017Z,57.03
2018-04-28T09:24:45.516Z,56.93
2018-04-28T09:25:54.479Z,56.71
2018-04-28T09:27:03.760Z,56.93
2018-04-28T09:28:12.715Z,56.93
2018-04-28T09:29:22.480Z,57
2018-04-28T09:30:31.455Z,56.93
2018-04-28T09:31:41.496Z,56.65
2018-04-28T09:32:51.271Z,56.65
2018-04-28T09:34:00.510Z,56.74
2018-04-28T09:35:10.004Z,57.03
2018-04-28T09:36:19.317Z,56.65
2018-04-28T09:37:28.277Z,56.45
2018-04-28T09:38:38.036Z,56.65
2018-04-28T09:39:47.262Z,56.45
2018-04-28T09:40:56.869Z,56.74
2018-04-28T09:42:06.096Z,56.74
2018-04-28T09:43:14.785Z,56.65
2018-04-28T09:44:24.011Z,56.74
2018-04-28T09:45:33.237Z,56.74
2018-04-28T09:46:42.207Z,56.74
2018-04-28T09:47:51.437Z,56.65
2018-04-28T09:49:01.465Z,56.74
2018-04-28T09:50:10.425Z,56.74
2018-04-28T09:51:19.915Z,56.84
2018-04-28T09:52:28.872Z,56.74
2018-04-28T09:53:38.366Z,56.74
2018-04-28T09:54:48.130Z,56.74
2018-04-28T09:55:57.358Z,56.74
2018-04-28T09:57:06.854Z,56.36
2018-04-28T09:58:16.084Z,56.55
2018-04-28T09:59:25.310Z,56.65
2018-04-28T10:00:35.073Z,56.65
2018-04-28T10:01:44.837Z,56.45
2018-04-28T10:02:54.884Z,56.93
2018-04-28T10:04:03.850Z,56.74
2018-04-28T10:05:13.888Z,56.55
2018-04-28T10:06:23.660Z,56.74
2018-04-28T10:07:33.438Z,56.74
2018-04-28T10:08:43.202Z,56.65
2018-04-28T10:09:52.427Z,56.65
2018-04-28T10:11:02.187Z,56.74
2018-04-28T10:12:11.417Z,56.74
2018-04-28T10:13:20.643Z,56.55
2018-04-28T10:14:30.136Z,56.55
2018-04-28T10:15:39.629Z,56.74
2018-04-28T10:16:49.392Z,56.55
2018-04-28T10:17:58.883Z,56.74
2018-04-28T10:19:07.843Z,56.74
2018-04-28T10:20:17.925Z,56.55
2018-04-28T10:21:28.682Z,56.84
2018-04-28T10:22:38.183Z,56.84
2018-04-28T10:23:47.939Z,56.74
2018-04-28T10:24:57.161Z,56.74
2018-04-28T10:26:06.123Z,56.55
2018-04-28T10:27:15.354Z,56.55
2018-04-28T10:28:25.117Z,56.74
2018-04-28T10:29:34.338Z,56.65
2018-04-28T10:30:44.382Z,56.65
2018-04-28T10:31:54.625Z,56.84
2018-04-28T10:33:04.398Z,57.03
2018-04-28T10:34:13.628Z,56.84
2018-04-28T10:35:22.851Z,57.03
2018-04-28T10:36:32.083Z,56.55
2018-04-28T10:37:41.862Z,56.45
2018-04-28T10:38:51.374Z,56.65
2018-04-28T10:40:01.140Z,56.65
2018-04-28T10:41:10.103Z,56.58
2018-04-28T10:42:20.144Z,56.65
2018-04-28T10:43:29.656Z,56.45
2018-04-28T10:44:38.881Z,56.26
2018-04-28T10:45:48.374Z,56.36
2018-04-28T10:46:58.133Z,56.45
2018-04-28T10:48:07.633Z,56.45
2018-04-28T10:49:17.678Z,56.45
2018-04-28T10:50:27.441Z,56.26
2018-04-28T10:51:36.135Z,56.26
2018-04-28T10:52:45.358Z,56.07
2018-04-28T10:53:55.211Z,56.07
2018-04-28T10:55:05.031Z,56.07
2018-04-28T10:56:14.261Z,56.07
2018-04-28T10:57:24.036Z,56.07
2018-04-28T10:58:33.798Z,56.36
2018-04-28T10:59:43.311Z,56.2
2018-04-28T11:00:52.804Z,55.78
2018-04-28T11:02:01.492Z,56.16
2018-04-28T11:03:10.986Z,56.38
2018-04-28T11:04:21.011Z,56.26
2018-04-28T11:05:30.933Z,56.16
2018-04-28T11:06:40.195Z,56.26
2018-04-28T11:07:49.423Z,56.26
2018-04-28T11:08:58.381Z,56.45
2018-04-28T11:10:07.609Z,56.26
2018-04-28T11:11:16.836Z,56.45
2018-04-28T11:12:26.065Z,56.26
2018-04-28T11:13:35.558Z,56.45
2018-04-28T11:14:44.784Z,56.93
2018-04-28T11:15:54.009Z,56.26
2018-04-28T11:17:03.513Z,56.84
2018-04-28T11:18:13.011Z,56.84
2018-04-28T11:19:22.789Z,56.93
2018-04-28T11:20:32.019Z,56.55
2018-04-28T11:21:42.050Z,56.65
2018-04-28T11:22:51.551Z,56.55
2018-04-28T11:24:00.778Z,57.13
2018-04-28T11:25:10.279Z,56.84
2018-04-28T11:26:20.046Z,57.03
2018-04-28T11:27:29.273Z,56.84
2018-04-28T11:28:38.231Z,57.03
2018-04-28T11:29:47.725Z,56.93
2018-04-28T11:30:56.954Z,56.65
2018-04-28T11:32:05.914Z,56.84
2018-04-28T11:33:15.150Z,57.03
2018-04-28T11:34:24.383Z,56.93
2018-04-28T11:35:34.161Z,56.84
2018-04-28T11:36:43.920Z,57.03
2018-04-28T11:37:53.153Z,56.84
2018-04-28T11:39:02.393Z,57.03
2018-04-28T11:40:11.612Z,56.74
2018-04-28T11:41:21.658Z,57.03
2018-04-28T11:42:30.347Z,56.84
2018-04-28T11:43:39.730Z,56.65
2018-04-28T11:44:50.107Z,57.03
2018-04-28T11:45:59.867Z,57.03
2018-04-28T11:47:09.361Z,56.84
2018-04-28T11:48:18.853Z,57.03
2018-04-28T11:49:27.544Z,56.84
2018-04-28T11:50:37.312Z,56.84
2018-04-28T11:51:47.083Z,56.26
2018-04-28T11:52:56.311Z,56.87
2018-04-28T11:54:06.078Z,56.74
2018-04-28T11:55:16.107Z,56.74
2018-04-28T11:56:25.613Z,56.55
2018-04-28T11:57:34.837Z,56.84
2018-04-28T11:58:44.601Z,56.55
2018-04-28T11:59:54.175Z,56.77
2018-04-28T12:01:03.945Z,56.29
2018-04-28T12:02:13.175Z,56.74
2018-04-28T12:03:22.939Z,56.48
2018-04-28T12:04:32.432Z,56.48
2018-04-28T12:05:41.961Z,56.45
2018-04-28T12:06:52.332Z,56.45
2018-04-28T12:08:01.047Z,56.29
2018-04-28T12:09:10.815Z,56
2018-04-28T12:10:20.578Z,55.81
2018-04-28T12:11:30.619Z,55.98
2018-04-28T12:12:40.255Z,56.38
2018-04-28T12:13:49.885Z,56.29
2018-04-28T12:14:59.380Z,56.2
2018-04-28T12:16:09.147Z,56.2
2018-04-28T12:17:18.656Z,56.29
2018-04-28T12:18:27.882Z,56.29
2018-04-28T12:19:37.120Z,56
2018-04-28T12:20:46.357Z,56.2
2018-04-28T12:21:55.862Z,56.29
2018-04-28T12:23:04.827Z,56.29
2018-04-28T12:24:14.891Z,56.29
2018-04-28T12:25:23.849Z,56.36
2018-04-28T12:26:33.072Z,56.29
2018-04-28T12:27:42.568Z,56.29
2018-04-28T12:28:51.801Z,56.38
2018-04-28T12:30:01.230Z,56.38
2018-04-28T12:31:11.164Z,56.38
2018-04-28T12:32:20.461Z,56.2
2018-04-28T12:33:29.957Z,56.2
2018-04-28T12:34:39.445Z,55.78
2018-04-28T12:35:48.417Z,56.38
2018-04-28T12:36:58.516Z,56.29
2018-04-28T12:38:08.283Z,56.38
2018-04-28T12:39:17.503Z,56.38
2018-04-28T12:40:26.998Z,56.48
2018-04-28T12:41:36.501Z,56.1
2018-04-28T12:42:45.997Z,56.38
2018-04-28T12:43:55.222Z,56.1
2018-04-28T12:45:04.449Z,56.58
2018-04-28T12:46:13.409Z,56.38
2018-04-28T12:47:22.917Z,56.1
2018-04-28T12:48:32.947Z,56.29
2018-04-28T12:49:42.175Z,56.29
2018-04-28T12:50:51.735Z,56.1
2018-04-28T12:52:00.965Z,56.2
2018-04-28T12:53:10.189Z,56.48
2018-04-28T12:54:19.685Z,56.29
2018-04-28T12:55:28.914Z,56.58
2018-04-28T12:56:38.412Z,56.67
2018-04-28T12:57:48.179Z,56.67
2018-04-28T12:58:57.400Z,56.67
2018-04-28T13:00:06.940Z,56.38
2018-04-28T13:01:16.169Z,56.29
2018-04-28T13:02:25.935Z,56.87
2018-04-28T13:03:35.164Z,56.58
2018-04-28T13:04:44.129Z,56.96
2018-04-28T13:05:54.164Z,56.29
2018-04-28T13:07:03.697Z,57.06
2018-04-28T13:08:13.230Z,57.03
2018-04-28T13:09:22.996Z,57.06
2018-04-28T13:10:32.493Z,56.77
2018-04-28T13:11:41.451Z,57.15
2018-04-28T13:12:51.223Z,56.58
2018-04-28T13:14:00.718Z,56.58
2018-04-28T13:15:10.481Z,56.58
2018-04-28T13:16:19.980Z,56.77
2018-04-28T13:17:29.537Z,56.67
2018-04-28T13:18:38.736Z,56.77
2018-04-28T13:19:48.494Z,56.87
2018-04-28T13:20:58.527Z,56.87
2018-04-28T13:22:08.293Z,56.87
2018-04-28T13:23:17.522Z,56.77
2018-04-28T13:24:26.762Z,56.77
2018-04-28T13:25:35.721Z,56.87
2018-04-28T13:26:44.944Z,56.87
2018-04-28T13:27:54.235Z,56.48
2018-04-28T13:29:03.463Z,56.87
2018-04-28T13:30:13.738Z,56.87
2018-04-28T13:31:23.500Z,56.87
2018-04-28T13:32:32.721Z,56.77
2018-04-28T13:33:42.489Z,56.58
2018-04-28T13:34:51.985Z,56.77
2018-04-28T13:36:01.745Z,56.77
2018-04-28T13:37:10.436Z,56.77
2018-04-28T13:38:19.927Z,56.77
2018-04-28T13:39:29.156Z,56.77
2018-04-28T13:40:38.390Z,56.67
2018-04-28T13:41:48.156Z,56.48
2018-04-28T13:42:57.933Z,56.77
2018-04-28T13:44:07.695Z,57.15
2018-04-28T13:45:17.189Z,56.96
2018-04-28T13:46:26.417Z,56.77
2018-04-28T13:47:35.911Z,57.45
2018-04-28T13:48:45.144Z,56.77
2018-04-28T13:49:54.099Z,56.67
2018-04-28T13:51:03.595Z,56.96
2018-04-28T13:52:12.819Z,57.45
2018-04-28T13:53:22.315Z,57.15
2018-04-28T13:54:31.535Z,57.15
2018-04-28T13:55:41.034Z,56.96
2018-04-28T13:56:50.798Z,57.35
2018-04-28T13:58:00.834Z,56.77
2018-04-28T13:59:10.869Z,57.06
2018-04-28T14:00:20.634Z,56.58
2018-04-28T14:01:29.590Z,56.96
2018-04-28T14:02:39.160Z,56.77
2018-04-28T14:03:48.389Z,57.35
2018-04-28T14:04:57.618Z,56.67
2018-04-28T14:06:06.842Z,57.15
2018-04-28T14:07:15.803Z,56.96
2018-04-28T14:08:25.568Z,57.35
2018-04-28T14:09:34.820Z,57.25
2018-04-28T14:10:44.532Z,57.06
2018-04-28T14:11:53.493Z,57.03
2018-04-28T14:13:02.720Z,56.77
2018-04-28T14:14:11.681Z,57.15
2018-04-28T14:15:20.919Z,56.48
2018-04-28T14:16:30.142Z,57.06
2018-04-28T14:17:39.113Z,56.77
2018-04-28T14:18:48.617Z,56.77
2018-04-28T14:19:58.114Z,56.38
2018-04-28T14:21:07.342Z,56.67
2018-04-28T14:22:17.107Z,56.77
2018-04-28T14:23:26.881Z,56.77
2018-04-28T14:24:36.642Z,56.67
2018-04-28T14:25:45.872Z,56.77
2018-04-28T14:26:55.692Z,56.77
2018-04-28T14:28:05.423Z,56.77
2018-04-28T14:29:15.186Z,56.67
2018-04-28T14:30:24.145Z,56.67
2018-04-28T14:31:33.651Z,56.77
2018-04-28T14:32:43.146Z,56.77
2018-04-28T14:33:52.648Z,56.58
2018-04-28T14:35:02.468Z,56.58
2018-04-28T14:36:11.959Z,56.77
2018-04-28T14:37:21.722Z,56.77
2018-04-28T14:38:30.948Z,56.87
2018-04-28T14:39:40.173Z,56.38
2018-04-28T14:40:49.933Z,56.48
2018-04-28T14:41:59.446Z,56.38
2018-04-28T14:43:08.941Z,56.67
2018-04-28T14:44:18.177Z,56.67
2018-04-28T14:45:27.405Z,56.48
2018-04-28T14:46:36.638Z,56.77
2018-04-28T14:47:46.138Z,56.58
2018-04-28T14:48:55.100Z,57.25
2018-04-28T14:50:04.336Z,56.96
2018-04-28T14:51:13.559Z,56.96
2018-04-28T14:52:22.793Z,56.48
2018-04-28T14:53:32.018Z,56.96
2018-04-28T14:54:41.787Z,56.58
2018-04-28T14:55:51.277Z,57.06
2018-04-28T14:57:00.505Z,56.96